createdAt,value
2023-05-03T00:02:24.845Z,62.99
2023-05-03T00:04:55.185Z,63.86
2023-05-03T00:07:22.984Z,64.00
2023-05-03T00:09:50.300Z,64.78
2023-05-03T00:12:17.582Z,62.91
2023-05-03T00:14:46.239Z,62.36
2023-05-03T00:17:13.592Z,62.91
2023-05-03T00:19:40.663Z,63.42
2023-05-03T00:22:07.801Z,62.48
2023-05-03T00:24:35.591Z,61.48
2023-05-03T00:27:05.215Z,60.72
2023-05-03T00:29:32.446Z,60.48
2023-05-03T00:32:00.475Z,60.26
2023-05-03T00:34:27.684Z,60.58
2023-05-03T00:36:54.732Z,60.41
2023-05-03T00:39:21.774Z,60.56
2023-05-03T00:41:48.777Z,61.02
2023-05-03T00:44:16.271Z,61.31
2023-05-03T00:46:43.364Z,61.23
2023-05-03T00:49:10.508Z,60.91
2023-05-03T00:51:37.695Z,60.42
2023-05-03T00:54:04.944Z,60.50
2023-05-03T00:56:44.406Z,60.66
2023-05-03T00:59:19.158Z,60.37
2023-05-03T01:01:51.669Z,60.45
2023-05-03T01:04:20.176Z,60.44
2023-05-03T01:07:10.828Z,60.67
2023-05-03T01:10:06.214Z,60.62
2023-05-03T01:12:57.853Z,61.11
2023-05-03T01:16:01.022Z,62.49
2023-05-03T01:18:34.593Z,62.37
2023-05-03T01:21:05.352Z,61.83
2023-05-03T01:24:08.069Z,61.70
2023-05-03T01:26:35.166Z,60.97
2023-05-03T01:29:02.554Z,60.47
2023-05-03T01:31:39.277Z,60.80
2023-05-03T01:34:51.023Z,61.53
2023-05-03T01:37:18.877Z,62.04
2023-05-03T01:40:02.311Z,61.66
2023-05-03T01:42:31.093Z,62.67
2023-05-03T01:45:00.416Z,63.04
2023-05-03T01:47:27.982Z,63.56
2023-05-03T01:49:55.225Z,63.82
2023-05-03T01:52:24.237Z,64.37
2023-05-03T01:54:51.298Z,64.31
2023-05-03T01:57:18.334Z,64.20
2023-05-03T01:59:45.427Z,65.37
2023-05-03T02:02:12.538Z,65.01
2023-05-03T02:04:39.633Z,65.21
2023-05-03T02:07:06.739Z,65.37
2023-05-03T02:09:34.305Z,65.10
2023-05-03T02:12:01.336Z,65.63
2023-05-03T02:14:28.515Z,65.29
2023-05-03T02:16:56.051Z,65.19
2023-05-03T02:19:23.183Z,65.48
2023-05-03T02:21:50.473Z,65.26
2023-05-03T02:24:17.754Z,66.21
2023-05-03T02:26:44.875Z,66.56
2023-05-03T02:29:11.954Z,67.14
2023-05-03T02:31:39.069Z,66.97
2023-05-03T02:34:06.178Z,66.84
2023-05-03T02:36:33.248Z,67.31
2023-05-03T02:39:00.378Z,67.13
2023-05-03T02:41:27.591Z,66.93
2023-05-03T02:43:54.634Z,66.55
2023-05-03T02:46:21.767Z,66.05
2023-05-03T02:48:48.880Z,65.87
2023-05-03T02:51:16.151Z,65.63
2023-05-03T02:53:43.170Z,64.88
2023-05-03T02:56:10.162Z,65.38
2023-05-03T02:58:37.425Z,66.13
2023-05-03T03:01:04.725Z,65.96
2023-05-03T03:03:32.037Z,66.50
2023-05-03T03:05:59.314Z,66.70
2023-05-03T03:08:26.410Z,67.13
2023-05-03T03:10:53.445Z,67.48
2023-05-03T03:13:20.641Z,67.42
2023-05-03T03:15:47.741Z,67.26
2023-05-03T03:18:14.896Z,65.95
2023-05-03T03:20:43.512Z,65.81
2023-05-03T03:23:11.431Z,65.50
2023-05-03T03:25:38.499Z,66.17
2023-05-03T03:28:05.731Z,66.17
2023-05-03T03:30:32.769Z,65.37
2023-05-03T03:32:59.969Z,64.70
2023-05-03T03:35:27.684Z,65.36
2023-05-03T03:37:54.679Z,65.05
2023-05-03T03:40:21.767Z,65.49
2023-05-03T03:42:48.783Z,65.30
2023-05-03T03:45:15.785Z,64.96
2023-05-03T03:47:42.932Z,64.60
2023-05-03T03:50:10.668Z,64.01
2023-05-03T03:52:37.865Z,62.05
2023-05-03T03:55:05.513Z,62.54
2023-05-03T03:57:32.571Z,62.52
2023-05-03T03:59:59.827Z,62.08
2023-05-03T04:02:27.820Z,61.74
2023-05-03T04:04:55.043Z,61.04
2023-05-03T04:07:22.154Z,60.78
2023-05-03T04:09:49.295Z,60.66
2023-05-03T04:12:16.364Z,59.95
2023-05-03T04:14:43.499Z,59.38
2023-05-03T04:17:10.787Z,58.31
2023-05-03T04:19:38.720Z,58.30
2023-05-03T04:22:06.031Z,57.50
2023-05-03T04:24:33.143Z,56.07
2023-05-03T04:27:04.341Z,52.12
2023-05-03T04:29:31.659Z,47.16
2023-05-03T04:31:58.795Z,45.83
2023-05-03T04:34:26.010Z,43.40
2023-05-03T04:36:53.580Z,39.52
2023-05-03T04:39:22.162Z,38.08
2023-05-03T04:41:49.217Z,34.98
2023-05-03T04:44:16.473Z,35.48
2023-05-03T04:46:43.639Z,32.90
2023-05-03T04:49:10.927Z,36.32
2023-05-03T04:51:37.961Z,36.90
2023-05-03T04:54:05.163Z,38.83
2023-05-03T04:56:35.693Z,40.43
2023-05-03T04:59:02.838Z,41.59
2023-05-03T05:01:29.954Z,43.00
2023-05-03T05:03:57.171Z,41.79
2023-05-03T05:06:24.493Z,32.18
2023-05-03T05:08:51.482Z,28.05
2023-05-03T05:11:19.000Z,25.14
2023-05-03T05:13:46.124Z,23.47
2023-05-03T05:16:13.255Z,21.80
2023-05-03T05:18:40.398Z,21.07
2023-05-03T05:21:07.490Z,20.67
2023-05-03T05:23:34.551Z,19.15
2023-05-03T05:26:01.741Z,19.19
2023-05-03T05:28:29.242Z,18.89
2023-05-03T05:30:56.411Z,18.84
2023-05-03T05:33:24.518Z,18.30
2023-05-03T05:35:51.624Z,16.85
2023-05-03T05:38:18.793Z,17.34
2023-05-03T05:40:45.835Z,16.94
2023-05-03T05:43:12.952Z,16.66
2023-05-03T05:45:40.273Z,16.39
2023-05-03T05:48:08.331Z,16.80
2023-05-03T05:50:36.646Z,16.05
2023-05-03T05:53:03.702Z,15.86
2023-05-03T05:55:30.977Z,15.44
2023-05-03T05:57:58.069Z,15.22
2023-05-03T06:00:25.333Z,14.39
2023-05-03T06:02:52.689Z,14.50
2023-05-03T06:05:21.367Z,14.45
2023-05-03T06:07:49.619Z,13.60
2023-05-03T06:10:16.818Z,11.90
2023-05-03T06:12:44.031Z,12.29
2023-05-03T06:15:11.337Z,11.67
2023-05-03T06:17:38.440Z,12.37
2023-05-03T06:20:06.905Z,11.78
2023-05-03T06:22:34.185Z,11.36
2023-05-03T06:25:01.313Z,11.19
2023-05-03T06:27:28.357Z,11.70
2023-05-03T06:29:55.480Z,11.58
2023-05-03T06:32:23.498Z,11.27
2023-05-03T06:34:50.975Z,11.75
2023-05-03T06:37:17.980Z,11.32
2023-05-03T06:39:45.042Z,11.13
2023-05-03T06:42:12.197Z,11.11
2023-05-03T06:44:39.229Z,11.34
2023-05-03T06:47:06.452Z,11.37
2023-05-03T06:49:33.848Z,11.96
2023-05-03T06:52:00.927Z,11.85
2023-05-03T06:54:28.013Z,11.52
2023-05-03T06:56:55.073Z,11.94
2023-05-03T06:59:22.114Z,12.30
2023-05-03T07:01:50.848Z,12.07
2023-05-03T07:04:18.005Z,11.29
2023-05-03T07:06:55.841Z,12.86
2023-05-03T07:09:35.482Z,14.57
2023-05-03T07:12:09.524Z,15.04
2023-05-03T07:14:36.593Z,13.93
2023-05-03T07:17:03.738Z,13.24
2023-05-03T07:19:31.077Z,14.38
2023-05-03T07:21:58.218Z,14.53
2023-05-03T07:24:26.200Z,13.93
2023-05-03T07:26:54.079Z,13.24
2023-05-03T07:29:21.543Z,13.54
2023-05-03T07:31:49.937Z,14.12
2023-05-03T07:34:18.574Z,13.84
2023-05-03T07:36:45.666Z,14.15
2023-05-03T07:39:12.687Z,14.56
2023-05-03T07:41:39.853Z,16.08
2023-05-03T07:44:07.852Z,18.44
2023-05-03T07:46:35.524Z,19.97
2023-05-03T07:49:05.050Z,18.78
2023-05-03T07:51:39.396Z,19.09
2023-05-03T07:54:06.888Z,20.25
2023-05-03T07:56:34.128Z,20.03
2023-05-03T07:59:09.156Z,20.45
2023-05-03T08:01:38.270Z,21.20
2023-05-03T08:04:06.056Z,20.64
2023-05-03T08:06:35.722Z,20.34
2023-05-03T08:09:04.689Z,19.66
2023-05-03T08:11:32.250Z,18.91
2023-05-03T08:13:59.337Z,20.50
2023-05-03T08:16:26.537Z,20.58
2023-05-03T08:18:53.652Z,20.29
2023-05-03T08:21:22.154Z,19.74
2023-05-03T08:23:49.177Z,19.10
2023-05-03T08:26:16.303Z,18.86
2023-05-03T08:28:43.345Z,19.27
2023-05-03T08:31:10.504Z,20.85
2023-05-03T08:33:37.899Z,21.74
2023-05-03T08:36:05.736Z,22.28
2023-05-03T08:38:34.440Z,22.17
2023-05-03T08:41:14.122Z,21.75
2023-05-03T08:43:46.288Z,21.51
2023-05-03T08:46:14.073Z,21.43
2023-05-03T08:48:41.566Z,21.59
2023-05-03T08:51:10.094Z,21.42
2023-05-03T08:53:37.641Z,21.88
2023-05-03T08:56:12.633Z,22.41
2023-05-03T08:58:39.901Z,21.91
2023-05-03T09:01:09.858Z,21.43
2023-05-03T09:03:37.997Z,21.18
2023-05-03T09:06:26.393Z,21.57
2023-05-03T09:08:54.783Z,21.22
2023-05-03T09:11:27.808Z,22.29
2023-05-03T09:14:08.503Z,23.25
2023-05-03T09:16:36.093Z,23.14
2023-05-03T09:19:09.412Z,22.55
2023-05-03T09:21:38.078Z,22.24
2023-05-03T09:24:22.313Z,22.06
2023-05-03T09:26:52.023Z,22.06
2023-05-03T09:29:35.980Z,22.27
2023-05-03T09:32:06.541Z,21.55
2023-05-03T09:34:35.623Z,21.68
2023-05-03T09:37:02.769Z,21.54
2023-05-03T09:39:30.091Z,22.54
2023-05-03T09:41:57.240Z,21.63
2023-05-03T09:44:44.695Z,22.33
2023-05-03T09:47:12.533Z,22.34
2023-05-03T09:49:39.972Z,21.75
2023-05-03T09:52:08.346Z,21.54
2023-05-03T09:54:36.226Z,20.69
2023-05-03T09:57:08.549Z,20.23
2023-05-03T09:59:37.757Z,20.99
2023-05-03T10:02:07.757Z,20.75
2023-05-03T10:04:51.470Z,21.56
2023-05-03T10:07:22.074Z,22.88
2023-05-03T10:09:49.384Z,22.68
2023-05-03T10:12:18.034Z,23.03
2023-05-03T10:14:49.986Z,22.47
2023-05-03T10:17:46.983Z,22.19
2023-05-03T10:20:24.362Z,21.15
2023-05-03T10:23:07.626Z,21.85
2023-05-03T10:25:37.668Z,22.40
2023-05-03T10:28:09.831Z,23.08
2023-05-03T10:30:39.965Z,23.14
2023-05-03T10:33:12.979Z,23.07
2023-05-03T10:35:55.058Z,23.68
2023-05-03T10:38:28.141Z,23.52
2023-05-03T10:40:56.831Z,22.29
2023-05-03T10:43:32.260Z,22.47
2023-05-03T10:46:01.715Z,23.02
2023-05-03T10:48:30.312Z,22.15
2023-05-03T10:50:59.310Z,22.83
2023-05-03T10:53:35.453Z,23.25
2023-05-03T10:56:06.669Z,23.62
2023-05-03T10:58:43.968Z,24.21
2023-05-03T11:01:17.715Z,24.55
2023-05-03T11:04:01.091Z,25.20
2023-05-03T11:06:35.711Z,24.63
2023-05-03T11:09:06.802Z,24.96
2023-05-03T11:11:36.590Z,24.99
2023-05-03T11:14:04.361Z,25.12
2023-05-03T11:16:32.021Z,25.26
2023-05-03T11:19:00.556Z,25.30
2023-05-03T11:21:27.911Z,24.44
2023-05-03T11:23:55.168Z,24.66
2023-05-03T11:26:26.276Z,23.54
2023-05-03T11:28:54.574Z,24.13
2023-05-03T11:31:22.815Z,25.34
2023-05-03T11:33:51.208Z,26.06
2023-05-03T11:36:18.382Z,24.30
2023-05-03T11:38:46.076Z,24.40
2023-05-03T11:41:19.593Z,23.59
2023-05-03T11:43:57.507Z,23.28
2023-05-03T11:46:33.060Z,24.16
2023-05-03T11:49:02.204Z,25.08
2023-05-03T11:51:29.552Z,25.15
2023-05-03T11:53:57.190Z,26.25
2023-05-03T11:56:24.660Z,26.04
2023-05-03T11:58:59.765Z,25.41
2023-05-03T12:01:29.140Z,25.61
2023-05-03T12:04:02.559Z,26.70
2023-05-03T12:06:35.358Z,27.03
2023-05-03T12:09:05.437Z,26.25
2023-05-03T12:11:44.206Z,25.34
2023-05-03T12:14:12.286Z,25.80
2023-05-03T12:16:52.770Z,25.41
2023-05-03T12:19:39.266Z,25.51
2023-05-03T12:22:26.092Z,26.77
2023-05-03T12:24:54.126Z,26.96
2023-05-03T12:27:23.560Z,27.41
2023-05-03T12:29:51.904Z,26.80
2023-05-03T12:32:21.377Z,26.63
2023-05-03T12:34:51.901Z,26.81
2023-05-03T12:37:22.056Z,26.56
2023-05-03T12:40:01.497Z,26.50
2023-05-03T12:42:37.058Z,27.70
2023-05-03T12:45:05.312Z,28.04
2023-05-03T12:47:36.172Z,27.46
2023-05-03T12:50:06.216Z,26.29
2023-05-03T12:52:38.171Z,26.88
2023-05-03T12:55:11.341Z,26.95
2023-05-03T12:57:39.255Z,26.74
2023-05-03T13:00:21.157Z,26.52
2023-05-03T13:05:33.813Z,26.89
2023-05-03T13:08:09.196Z,26.83
2023-05-03T13:10:39.152Z,27.03
2023-05-03T13:13:07.156Z,27.23
2023-05-03T13:15:38.010Z,27.05
2023-05-03T13:18:07.413Z,26.46
2023-05-03T13:20:37.093Z,26.51
2023-05-03T13:23:04.817Z,26.13
2023-05-03T13:25:32.162Z,26.41
2023-05-03T13:28:01.937Z,25.71
2023-05-03T13:30:29.295Z,25.15
2023-05-03T13:32:56.477Z,25.58
2023-05-03T13:35:23.545Z,26.30
2023-05-03T13:37:51.101Z,26.78
2023-05-03T13:40:18.905Z,26.49
2023-05-03T13:42:46.048Z,26.24
2023-05-03T13:45:15.141Z,26.73
2023-05-03T13:48:04.965Z,26.72
2023-05-03T13:50:32.059Z,26.94
2023-05-03T13:52:59.218Z,26.39
2023-05-03T13:55:26.902Z,26.58
2023-05-03T13:57:54.142Z,26.57
2023-05-03T14:00:21.419Z,26.23
2023-05-03T14:02:48.808Z,26.71
2023-05-03T14:05:16.627Z,27.18
2023-05-03T14:07:43.796Z,27.45
2023-05-03T14:10:11.891Z,27.64
2023-05-03T14:12:39.111Z,27.25
2023-05-03T14:15:07.738Z,27.19
2023-05-03T14:17:34.957Z,27.11
2023-05-03T14:20:02.697Z,27.25
2023-05-03T14:22:30.055Z,27.04
2023-05-03T14:24:57.292Z,26.79
2023-05-03T14:27:24.461Z,26.79
2023-05-03T14:29:52.038Z,26.71
2023-05-03T14:32:24.497Z,27.02
2023-05-03T14:34:51.733Z,26.70
2023-05-03T14:37:18.840Z,26.79
2023-05-03T14:39:46.082Z,26.71
2023-05-03T14:42:13.228Z,26.76
2023-05-03T14:44:40.347Z,26.53
2023-05-03T14:47:08.397Z,26.66
2023-05-03T14:49:41.143Z,26.20
2023-05-03T14:52:09.007Z,26.99
2023-05-03T14:54:37.517Z,26.87
2023-05-03T14:57:05.125Z,27.16
2023-05-03T14:59:33.396Z,27.20
2023-05-03T15:02:01.699Z,27.13
2023-05-03T15:04:29.391Z,27.81
2023-05-03T15:07:04.260Z,27.67
2023-05-03T15:09:31.913Z,27.70
2023-05-03T15:11:59.741Z,27.79
2023-05-03T15:14:26.779Z,27.15
2023-05-03T15:16:53.894Z,26.88
2023-05-03T15:19:21.673Z,27.19
2023-05-03T15:21:50.947Z,27.19
2023-05-03T15:24:18.867Z,27.61
2023-05-03T15:26:47.082Z,27.60
2023-05-03T15:29:15.362Z,27.49
2023-05-03T15:31:42.973Z,27.62
2023-05-03T15:34:12.291Z,27.63
2023-05-03T15:36:40.661Z,28.21
2023-05-03T15:39:09.489Z,28.32
2023-05-03T15:41:36.522Z,28.35
2023-05-03T15:44:05.501Z,28.14
2023-05-03T15:46:34.578Z,27.63
2023-05-03T15:49:01.873Z,28.15
2023-05-03T15:51:29.430Z,28.30
2023-05-03T15:53:56.571Z,28.44
2023-05-03T15:56:23.787Z,28.51
2023-05-03T15:58:51.023Z,28.04
2023-05-03T16:01:18.811Z,27.99
2023-05-03T16:03:46.325Z,27.99
2023-05-03T16:06:16.823Z,28.08
2023-05-03T16:08:44.320Z,28.14
2023-05-03T16:11:12.968Z,28.19
2023-05-03T16:13:40.051Z,28.40
2023-05-03T16:16:07.295Z,28.15
2023-05-03T16:18:34.409Z,27.89
2023-05-03T16:21:02.636Z,27.98
2023-05-03T16:23:29.955Z,28.47
2023-05-03T16:25:57.190Z,28.60
2023-05-03T16:28:24.423Z,28.52
2023-05-03T16:30:51.807Z,28.82
2023-05-03T16:33:19.577Z,29.00
2023-05-03T16:35:46.637Z,28.71
2023-05-03T16:38:13.699Z,28.62
2023-05-03T16:40:42.517Z,28.82
2023-05-03T16:43:10.258Z,28.84
2023-05-03T16:45:37.622Z,28.94
2023-05-03T16:48:06.806Z,28.47
2023-05-03T16:50:37.095Z,28.70
2023-05-03T16:53:04.247Z,29.10
2023-05-03T16:55:31.426Z,29.16
2023-05-03T16:57:58.453Z,29.11
2023-05-03T17:00:25.901Z,28.85
2023-05-03T17:02:53.049Z,29.01
2023-05-03T17:05:20.426Z,28.93
2023-05-03T17:07:47.500Z,29.27
2023-05-03T17:10:14.768Z,29.32
2023-05-03T17:12:41.931Z,29.20
2023-05-03T17:15:10.249Z,29.63
2023-05-03T17:17:37.328Z,29.63
2023-05-03T17:20:05.320Z,29.48
2023-05-03T17:22:32.876Z,29.07
2023-05-03T17:24:59.996Z,29.10
2023-05-03T17:27:27.145Z,28.86
2023-05-03T17:29:57.522Z,29.19
2023-05-03T17:32:24.796Z,29.18
2023-05-03T17:34:51.986Z,29.48
2023-05-03T17:37:19.018Z,30.08
2023-05-03T17:39:46.368Z,30.24
2023-05-03T17:42:13.410Z,30.36
2023-05-03T17:44:40.960Z,30.58
2023-05-03T17:47:09.503Z,30.68
2023-05-03T17:49:36.626Z,30.81
2023-05-03T17:52:05.002Z,31.01
2023-05-03T17:54:32.311Z,30.79
2023-05-03T17:56:59.511Z,30.90
2023-05-03T17:59:26.540Z,31.19
2023-05-03T18:01:53.686Z,31.41
2023-05-03T18:04:20.900Z,31.45
2023-05-03T18:06:48.038Z,31.89
2023-05-03T18:09:16.497Z,31.43
2023-05-03T18:11:45.123Z,31.45
2023-05-03T18:14:12.485Z,31.64
2023-05-03T18:16:39.974Z,31.67
2023-05-03T18:19:07.344Z,31.92
2023-05-03T18:21:35.642Z,31.70
2023-05-03T18:24:03.845Z,32.19
2023-05-03T18:26:30.957Z,32.67
2023-05-03T18:28:59.378Z,32.59
2023-05-03T18:31:27.341Z,32.97
2023-05-03T18:33:54.522Z,33.46
2023-05-03T18:36:23.565Z,33.66
2023-05-03T18:38:53.274Z,34.22
2023-05-03T18:41:20.953Z,34.69
2023-05-03T18:43:47.987Z,35.28
2023-05-03T18:46:19.708Z,35.45
2023-05-03T18:48:47.895Z,35.54
2023-05-03T18:51:15.123Z,35.66
2023-05-03T18:53:43.524Z,35.94
2023-05-03T18:56:10.907Z,36.46
2023-05-03T18:58:38.257Z,36.33
2023-05-03T19:01:06.037Z,37.11
2023-05-03T19:03:33.595Z,37.40
2023-05-03T19:06:07.331Z,37.76
2023-05-03T19:08:35.767Z,38.19
2023-05-03T19:11:14.510Z,38.39
2023-05-03T19:13:44.826Z,38.95
2023-05-03T19:16:12.513Z,39.65
2023-05-03T19:18:44.326Z,39.84
2023-05-03T19:21:17.753Z,40.15
2023-05-03T19:23:45.353Z,40.39
2023-05-03T19:26:12.457Z,40.50
2023-05-03T19:28:40.436Z,41.01
2023-05-03T19:31:07.797Z,41.22
2023-05-03T19:33:34.907Z,41.38
2023-05-03T19:36:06.597Z,41.68
2023-05-03T19:38:36.469Z,41.49
2023-05-03T19:41:09.664Z,41.86
2023-05-03T19:43:36.791Z,42.50
2023-05-03T19:46:04.631Z,43.18
2023-05-03T19:48:32.399Z,43.25
2023-05-03T19:51:00.461Z,43.59
2023-05-03T19:53:28.513Z,42.97
2023-05-03T19:56:01.017Z,42.44
2023-05-03T19:58:29.001Z,42.95
2023-05-03T20:00:58.980Z,42.98
2023-05-03T20:03:26.974Z,43.50
2023-05-03T20:05:54.215Z,43.40
2023-05-03T20:08:21.345Z,43.75
2023-05-03T20:10:49.869Z,43.53
2023-05-03T20:13:17.272Z,43.92
2023-05-03T20:15:44.480Z,43.60
2023-05-03T20:18:11.539Z,44.12
2023-05-03T20:20:39.124Z,44.59
2023-05-03T20:23:06.286Z,45.06
2023-05-03T20:25:33.827Z,45.16
2023-05-03T20:28:01.013Z,45.44
2023-05-03T20:30:29.769Z,45.74
2023-05-03T20:32:56.883Z,45.34
2023-05-03T20:35:24.042Z,45.66
2023-05-03T20:37:51.212Z,46.14
2023-05-03T20:40:18.278Z,46.87
2023-05-03T20:42:45.354Z,46.61
2023-05-03T20:45:12.745Z,46.75
2023-05-03T20:47:39.830Z,46.75
2023-05-03T20:50:08.904Z,47.40
2023-05-03T20:52:36.386Z,47.72
2023-05-03T20:55:03.562Z,47.30
2023-05-03T20:57:31.587Z,47.62
2023-05-03T21:00:00.431Z,47.69
2023-05-03T21:02:27.568Z,48.00
2023-05-03T21:04:54.639Z,48.40
2023-05-03T21:07:21.737Z,48.58
2023-05-03T21:09:48.713Z,48.85
2023-05-03T21:12:15.807Z,48.75
2023-05-03T21:14:42.869Z,48.66
2023-05-03T21:17:12.229Z,48.57
2023-05-03T21:19:39.942Z,48.59
2023-05-03T21:22:11.603Z,48.99
2023-05-03T21:24:38.848Z,48.63
2023-05-03T21:27:05.869Z,49.08
2023-05-03T21:29:33.118Z,49.39
2023-05-03T21:32:00.380Z,49.32
2023-05-03T21:34:27.799Z,49.51
2023-05-03T21:36:54.854Z,49.72
2023-05-03T21:39:21.986Z,49.61
2023-05-03T21:41:49.024Z,49.72
2023-05-03T21:44:16.093Z,50.12
2023-05-03T21:46:43.267Z,50.13
2023-05-03T21:49:10.487Z,50.30
2023-05-03T21:51:37.678Z,50.43
2023-05-03T21:54:04.837Z,50.43
2023-05-03T21:56:31.958Z,50.37
2023-05-03T21:58:59.012Z,50.64
2023-05-03T22:01:26.147Z,50.47
2023-05-03T22:03:53.502Z,50.40
2023-05-03T22:06:21.790Z,50.42
2023-05-03T22:08:49.349Z,50.36
2023-05-03T22:11:16.442Z,50.70
2023-05-03T22:13:58.750Z,51.35
2023-05-03T22:16:26.551Z,51.66
2023-05-03T22:18:53.641Z,51.60
2023-05-03T22:21:20.893Z,52.00
2023-05-03T22:23:48.197Z,51.96
2023-05-03T22:26:15.253Z,52.10
2023-05-03T22:28:42.608Z,52.33
2023-05-03T22:31:09.692Z,52.40
2023-05-03T22:33:36.815Z,52.96
2023-05-03T22:36:04.502Z,53.16
2023-05-03T22:38:31.873Z,52.81
2023-05-03T22:40:58.941Z,53.01
2023-05-03T22:43:26.058Z,53.70
2023-05-03T22:45:53.107Z,53.70
2023-05-03T22:48:20.237Z,53.93
2023-05-03T22:50:47.267Z,53.97
2023-05-03T22:53:14.358Z,54.09
2023-05-03T22:55:41.542Z,54.40
2023-05-03T22:58:08.649Z,54.57
2023-05-03T23:00:35.677Z,54.79
2023-05-03T23:03:02.829Z,54.82
2023-05-03T23:05:30.467Z,54.83
2023-05-03T23:07:57.481Z,54.68
2023-05-03T23:10:24.865Z,55.00
2023-05-03T23:12:51.968Z,55.14
2023-05-03T23:15:19.195Z,55.03
2023-05-03T23:17:46.569Z,55.04
2023-05-03T23:20:13.953Z,56.07
2023-05-03T23:22:42.295Z,56.26
2023-05-03T23:25:09.889Z,56.25
2023-05-03T23:27:37.425Z,56.49
2023-05-03T23:30:05.887Z,56.08
2023-05-03T23:32:33.490Z,56.47
2023-05-03T23:35:01.241Z,57.00
2023-05-03T23:37:28.691Z,57.08
2023-05-03T23:39:55.865Z,56.88
2023-05-03T23:42:24.356Z,56.84
2023-05-03T23:44:55.264Z,57.07
2023-05-03T23:47:23.599Z,57.71
2023-05-03T23:49:51.111Z,57.48
2023-05-03T23:52:19.873Z,57.81
2023-05-03T23:54:47.035Z,57.88
2023-05-03T23:57:14.170Z,58.14
2023-05-03T23:59:41.194Z,58.28
